sensor_id;sensor_type;location;lat;lon;timestamp;P1;P2;P0
49644;PMS5003;36494;50.730;-1.932;2023-03-23T00:00:13;8;8;
49644;PMS5003;36494;50.730;-1.932;2023-03-23T00:02:38;6;4;
49644;PMS5003;36494;50.730;-1.932;2023-03-23T00:05:04;7;6;
49644;PMS5003;36494;50.730;-1.932;2023-03-23T00:07:29;5;4;
49644;PMS5003;36494;50.730;-1.932;2023-03-23T00:09:54;8;7;
49644;PMS5003;36494;50.730;-1.932;2023-03-23T00:12:20;4;4;
49644;PMS5003;36494;50.730;-1.932;2023-03-23T00:14:45;4;3;
49644;PMS5003;36494;50.730;-1.932;2023-03-23T00:17:11;8;7;
49644;PMS5003;36494;50.730;-1.932;2023-03-23T00:19:37;10;8;
49644;PMS5003;36494;50.730;-1.932;2023-03-23T00:22:02;7;7;
49644;PMS5003;36494;50.730;-1.932;2023-03-23T00:24:27;5;5;
49644;PMS5003;36494;50.730;-1.932;2023-03-23T00:26:52;8;6;
49644;PMS5003;36494;50.730;-1.932;2023-03-23T00:29:18;9;8;
49644;PMS5003;36494;50.730;-1.932;2023-03-23T00:31:43;10;9;
49644;PMS5003;36494;50.730;-1.932;2023-03-23T00:34:08;6;6;
49644;PMS5003;36494;50.730;-1.932;2023-03-23T00:36:33;8;7;
49644;PMS5003;36494;50.730;-1.932;2023-03-23T00:38:58;11;11;
49644;PMS5003;36494;50.730;-1.932;2023-03-23T00:41:24;17;16;
49644;PMS5003;36494;50.730;-1.932;2023-03-23T00:43:49;14;12;
49644;PMS5003;36494;50.730;-1.932;2023-03-23T00:46:15;15;14;
49644;PMS5003;36494;50.730;-1.932;2023-03-23T00:48:40;10;10;
49644;PMS5003;36494;50.730;-1.932;2023-03-23T00:51:05;13;11;
49644;PMS5003;36494;50.730;-1.932;2023-03-23T00:53:30;10;8;
49644;PMS5003;36494;50.730;-1.932;2023-03-23T00:55:55;11;10;
49644;PMS5003;36494;50.730;-1.932;2023-03-23T00:58:21;12;11;
49644;PMS5003;36494;50.730;-1.932;2023-03-23T01:00:47;11;9;
49644;PMS5003;36494;50.730;-1.932;2023-03-23T01:03:12;15;13;
49644;PMS5003;36494;50.730;-1.932;2023-03-23T01:05:37;19;16;
49644;PMS5003;36494;50.730;-1.932;2023-03-23T01:08:02;10;9;
49644;PMS5003;36494;50.730;-1.932;2023-03-23T01:10:28;15;11;
49644;PMS5003;36494;50.730;-1.932;2023-03-23T01:12:53;15;14;
49644;PMS5003;36494;50.730;-1.932;2023-03-23T01:15:18;17;15;
49644;PMS5003;36494;50.730;-1.932;2023-03-23T01:17:44;12;12;
49644;PMS5003;36494;50.730;-1.932;2023-03-23T01:20:09;13;11;
49644;PMS5003;36494;50.730;-1.932;2023-03-23T01:22:34;12;10;
49644;PMS5003;36494;50.730;-1.932;2023-03-23T01:24:59;15;12;
49644;PMS5003;36494;50.730;-1.932;2023-03-23T01:27:25;14;11;
49644;PMS5003;36494;50.730;-1.932;2023-03-23T01:29:50;14;11;
49644;PMS5003;36494;50.730;-1.932;2023-03-23T01:32:15;12;12;
49644;PMS5003;36494;50.730;-1.932;2023-03-23T01:34:41;13;10;
49644;PMS5003;36494;50.730;-1.932;2023-03-23T01:37:06;10;8;
49644;PMS5003;36494;50.730;-1.932;2023-03-23T01:39:31;18;16;
49644;PMS5003;36494;50.730;-1.932;2023-03-23T01:41:57;13;11;
49644;PMS5003;36494;50.730;-1.932;2023-03-23T01:46:48;12;8;
49644;PMS5003;36494;50.730;-1.932;2023-03-23T01:49:15;12;10;
49644;PMS5003;36494;50.730;-1.932;2023-03-23T01:51:39;11;10;
49644;PMS5003;36494;50.730;-1.932;2023-03-23T01:54:04;13;12;
49644;PMS5003;36494;50.730;-1.932;2023-03-23T01:56:31;12;10;
49644;PMS5003;36494;50.730;-1.932;2023-03-23T01:58:55;12;11;
49644;PMS5003;36494;50.730;-1.932;2023-03-23T02:01:20;10;9;
49644;PMS5003;36494;50.730;-1.932;2023-03-23T02:03:45;11;10;
49644;PMS5003;36494;50.730;-1.932;2023-03-23T02:06:11;10;8;
49644;PMS5003;36494;50.730;-1.932;2023-03-23T02:08:36;7;7;
49644;PMS5003;36494;50.730;-1.932;2023-03-23T02:11:01;12;9;
49644;PMS5003;36494;50.730;-1.932;2023-03-23T02:13:27;13;12;
49644;PMS5003;36494;50.730;-1.932;2023-03-23T02:15:55;15;12;
49644;PMS5003;36494;50.730;-1.932;2023-03-23T02:18:27;9;8;
49644;PMS5003;36494;50.730;-1.932;2023-03-23T02:20:49;13;12;
49644;PMS5003;36494;50.730;-1.932;2023-03-23T02:23:16;10;8;
49644;PMS5003;36494;50.730;-1.932;2023-03-23T02:25:37;12;10;
49644;PMS5003;36494;50.730;-1.932;2023-03-23T02:28:04;12;11;
49644;PMS5003;36494;50.730;-1.932;2023-03-23T02:30:30;18;13;
49644;PMS5003;36494;50.730;-1.932;2023-03-23T02:35:16;9;8;
49644;PMS5003;36494;50.730;-1.932;2023-03-23T02:37:40;13;13;
49644;PMS5003;36494;50.730;-1.932;2023-03-23T02:40:06;20;17;
49644;PMS5003;36494;50.730;-1.932;2023-03-23T02:42:31;18;16;
49644;PMS5003;36494;50.730;-1.932;2023-03-23T02:44:56;20;18;
49644;PMS5003;36494;50.730;-1.932;2023-03-23T02:47:22;17;15;
49644;PMS5003;36494;50.730;-1.932;2023-03-23T02:49:48;13;13;
49644;PMS5003;36494;50.730;-1.932;2023-03-23T02:52:14;14;12;
49644;PMS5003;36494;50.730;-1.932;2023-03-23T02:54:38;14;12;
49644;PMS5003;36494;50.730;-1.932;2023-03-23T02:57:03;8;8;
49644;PMS5003;36494;50.730;-1.932;2023-03-23T02:59:28;10;7;
49644;PMS5003;36494;50.730;-1.932;2023-03-23T03:01:55;13;10;
49644;PMS5003;36494;50.730;-1.932;2023-03-23T03:04:19;13;11;
49644;PMS5003;36494;50.730;-1.932;2023-03-23T03:06:46;10;9;
49644;PMS5003;36494;50.730;-1.932;2023-03-23T03:09:11;13;9;
49644;PMS5003;36494;50.730;-1.932;2023-03-23T03:11:35;7;7;
49644;PMS5003;36494;50.730;-1.932;2023-03-23T03:14:01;8;8;
49644;PMS5003;36494;50.730;-1.932;2023-03-23T03:16:27;10;9;
49644;PMS5003;36494;50.730;-1.932;2023-03-23T03:18:51;12;11;
49644;PMS5003;36494;50.730;-1.932;2023-03-23T03:21:16;8;7;
49644;PMS5003;36494;50.730;-1.932;2023-03-23T03:23:42;8;7;
49644;PMS5003;36494;50.730;-1.932;2023-03-23T03:26:07;8;8;
49644;PMS5003;36494;50.730;-1.932;2023-03-23T03:28:33;10;8;
49644;PMS5003;36494;50.730;-1.932;2023-03-23T03:31:00;13;11;
49644;PMS5003;36494;50.730;-1.932;2023-03-23T03:33:24;12;10;
49644;PMS5003;36494;50.730;-1.932;2023-03-23T03:35:50;9;8;
49644;PMS5003;36494;50.730;-1.932;2023-03-23T03:38:15;9;9;
49644;PMS5003;36494;50.730;-1.932;2023-03-23T03:40:40;9;9;
49644;PMS5003;36494;50.730;-1.932;2023-03-23T03:43:06;8;7;
49644;PMS5003;36494;50.730;-1.932;2023-03-23T03:45:32;11;8;
49644;PMS5003;36494;50.730;-1.932;2023-03-23T03:47:57;15;13;
49644;PMS5003;36494;50.730;-1.932;2023-03-23T03:50:22;10;9;
49644;PMS5003;36494;50.730;-1.932;2023-03-23T03:52:47;10;10;
49644;PMS5003;36494;50.730;-1.932;2023-03-23T03:55:12;10;9;
49644;PMS5003;36494;50.730;-1.932;2023-03-23T03:57:38;12;11;
49644;PMS5003;36494;50.730;-1.932;2023-03-23T04:00:03;14;14;
49644;PMS5003;36494;50.730;-1.932;2023-03-23T04:02:29;16;12;
49644;PMS5003;36494;50.730;-1.932;2023-03-23T04:04:54;11;8;
49644;PMS5003;36494;50.730;-1.932;2023-03-23T04:07:20;10;10;
49644;PMS5003;36494;50.730;-1.932;2023-03-23T04:09:46;11;11;
49644;PMS5003;36494;50.730;-1.932;2023-03-23T04:12:11;10;10;
49644;PMS5003;36494;50.730;-1.932;2023-03-23T04:14:37;18;14;
49644;PMS5003;36494;50.730;-1.932;2023-03-23T04:17:03;14;14;
49644;PMS5003;36494;50.730;-1.932;2023-03-23T04:19:28;13;11;
49644;PMS5003;36494;50.730;-1.932;2023-03-23T04:21:53;17;15;
49644;PMS5003;36494;50.730;-1.932;2023-03-23T04:24:18;14;12;
49644;PMS5003;36494;50.730;-1.932;2023-03-23T04:26:44;14;12;
49644;PMS5003;36494;50.730;-1.932;2023-03-23T04:29:09;12;10;
49644;PMS5003;36494;50.730;-1.932;2023-03-23T04:31:35;16;14;
49644;PMS5003;36494;50.730;-1.932;2023-03-23T04:34:00;15;12;
49644;PMS5003;36494;50.730;-1.932;2023-03-23T04:36:25;12;10;
49644;PMS5003;36494;50.730;-1.932;2023-03-23T04:38:51;11;11;
49644;PMS5003;36494;50.730;-1.932;2023-03-23T04:41:17;13;12;
49644;PMS5003;36494;50.730;-1.932;2023-03-23T04:43:42;20;16;
49644;PMS5003;36494;50.730;-1.932;2023-03-23T04:46:08;15;13;
49644;PMS5003;36494;50.730;-1.932;2023-03-23T04:48:33;29;27;
49644;PMS5003;36494;50.730;-1.932;2023-03-23T04:51:00;25;24;
49644;PMS5003;36494;50.730;-1.932;2023-03-23T04:53:24;31;28;
49644;PMS5003;36494;50.730;-1.932;2023-03-23T04:55:50;26;25;
49644;PMS5003;36494;50.730;-1.932;2023-03-23T04:58:15;30;26;
49644;PMS5003;36494;50.730;-1.932;2023-03-23T05:00:40;29;27;
49644;PMS5003;36494;50.730;-1.932;2023-03-23T05:03:05;22;21;
49644;PMS5003;36494;50.730;-1.932;2023-03-23T05:05:30;24;24;
49644;PMS5003;36494;50.730;-1.932;2023-03-23T05:07:56;25;23;
49644;PMS5003;36494;50.730;-1.932;2023-03-23T05:10:22;25;24;
49644;PMS5003;36494;50.730;-1.932;2023-03-23T05:12:47;21;19;
49644;PMS5003;36494;50.730;-1.932;2023-03-23T05:15:13;18;16;
49644;PMS5003;36494;50.730;-1.932;2023-03-23T05:17:37;20;18;
49644;PMS5003;36494;50.730;-1.932;2023-03-23T05:20:04;23;23;
49644;PMS5003;36494;50.730;-1.932;2023-03-23T05:22:28;22;21;
49644;PMS5003;36494;50.730;-1.932;2023-03-23T05:24:53;30;26;
49644;PMS5003;36494;50.730;-1.932;2023-03-23T05:27:19;35;31;
49644;PMS5003;36494;50.730;-1.932;2023-03-23T05:29:44;28;27;
49644;PMS5003;36494;50.730;-1.932;2023-03-23T05:32:09;22;21;
49644;PMS5003;36494;50.730;-1.932;2023-03-23T05:34:35;31;28;
49644;PMS5003;36494;50.730;-1.932;2023-03-23T05:37:01;27;26;
49644;PMS5003;36494;50.730;-1.932;2023-03-23T05:39:26;15;14;
49644;PMS5003;36494;50.730;-1.932;2023-03-23T05:41:51;22;21;
49644;PMS5003;36494;50.730;-1.932;2023-03-23T05:44:16;24;20;
49644;PMS5003;36494;50.730;-1.932;2023-03-23T05:46:42;23;23;
49644;PMS5003;36494;50.730;-1.932;2023-03-23T05:49:07;26;25;
49644;PMS5003;36494;50.730;-1.932;2023-03-23T05:51:33;28;25;
49644;PMS5003;36494;50.730;-1.932;2023-03-23T05:53:59;24;20;
49644;PMS5003;36494;50.730;-1.932;2023-03-23T05:56:24;15;12;
49644;PMS5003;36494;50.730;-1.932;2023-03-23T05:58:50;11;10;
49644;PMS5003;36494;50.730;-1.932;2023-03-23T06:01:15;13;12;
49644;PMS5003;36494;50.730;-1.932;2023-03-23T06:03:41;10;7;
49644;PMS5003;36494;50.730;-1.932;2023-03-23T06:06:06;11;9;
49644;PMS5003;36494;50.730;-1.932;2023-03-23T06:08:31;12;10;
49644;PMS5003;36494;50.730;-1.932;2023-03-23T06:10:57;12;11;
49644;PMS5003;36494;50.730;-1.932;2023-03-23T06:13:22;12;9;
49644;PMS5003;36494;50.730;-1.932;2023-03-23T06:15:47;11;9;
49644;PMS5003;36494;50.730;-1.932;2023-03-23T06:18:13;16;14;
49644;PMS5003;36494;50.730;-1.932;2023-03-23T06:20:38;10;9;
49644;PMS5003;36494;50.730;-1.932;2023-03-23T06:23:04;15;13;
49644;PMS5003;36494;50.730;-1.932;2023-03-23T06:25:29;17;16;
49644;PMS5003;36494;50.730;-1.932;2023-03-23T06:27:54;20;17;
49644;PMS5003;36494;50.730;-1.932;2023-03-23T06:30:20;13;12;
49644;PMS5003;36494;50.730;-1.932;2023-03-23T06:32:45;13;11;
49644;PMS5003;36494;50.730;-1.932;2023-03-23T06:35:11;19;13;
49644;PMS5003;36494;50.730;-1.932;2023-03-23T06:37:36;12;11;
49644;PMS5003;36494;50.730;-1.932;2023-03-23T06:40:01;15;13;
49644;PMS5003;36494;50.730;-1.932;2023-03-23T06:42:26;13;10;
49644;PMS5003;36494;50.730;-1.932;2023-03-23T06:44:52;16;13;
49644;PMS5003;36494;50.730;-1.932;2023-03-23T06:47:17;14;13;
49644;PMS5003;36494;50.730;-1.932;2023-03-23T06:49:42;22;20;
49644;PMS5003;36494;50.730;-1.932;2023-03-23T06:52:08;23;20;
49644;PMS5003;36494;50.730;-1.932;2023-03-23T06:54:33;32;29;
49644;PMS5003;36494;50.730;-1.932;2023-03-23T06:56:58;25;23;
49644;PMS5003;36494;50.730;-1.932;2023-03-23T06:59:23;25;22;
49644;PMS5003;36494;50.730;-1.932;2023-03-23T07:01:48;26;23;
49644;PMS5003;36494;50.730;-1.932;2023-03-23T07:04:14;21;20;
49644;PMS5003;36494;50.730;-1.932;2023-03-23T07:06:39;20;20;
49644;PMS5003;36494;50.730;-1.932;2023-03-23T07:09:04;17;16;
49644;PMS5003;36494;50.730;-1.932;2023-03-23T07:11:29;16;15;
49644;PMS5003;36494;50.730;-1.932;2023-03-23T07:13:55;16;14;
49644;PMS5003;36494;50.730;-1.932;2023-03-23T07:16:20;16;11;
49644;PMS5003;36494;50.730;-1.932;2023-03-23T07:18:46;12;10;
49644;PMS5003;36494;50.730;-1.932;2023-03-23T07:21:11;11;10;
49644;PMS5003;36494;50.730;-1.932;2023-03-23T07:23:37;10;9;
49644;PMS5003;36494;50.730;-1.932;2023-03-23T07:26:03;15;14;
49644;PMS5003;36494;50.730;-1.932;2023-03-23T07:28:28;18;17;
49644;PMS5003;36494;50.730;-1.932;2023-03-23T07:30:54;14;13;
49644;PMS5003;36494;50.730;-1.932;2023-03-23T07:33:19;11;10;
49644;PMS5003;36494;50.730;-1.932;2023-03-23T07:35:45;23;20;
49644;PMS5003;36494;50.730;-1.932;2023-03-23T07:38:09;12;11;
49644;PMS5003;36494;50.730;-1.932;2023-03-23T07:40:35;16;15;
49644;PMS5003;36494;50.730;-1.932;2023-03-23T07:43:01;16;16;
49644;PMS5003;36494;50.730;-1.932;2023-03-23T07:45:26;20;16;
49644;PMS5003;36494;50.730;-1.932;2023-03-23T07:47:51;17;16;
49644;PMS5003;36494;50.730;-1.932;2023-03-23T07:50:16;19;17;
49644;PMS5003;36494;50.730;-1.932;2023-03-23T07:52:41;23;20;
49644;PMS5003;36494;50.730;-1.932;2023-03-23T07:55:08;16;16;
49644;PMS5003;36494;50.730;-1.932;2023-03-23T07:57:33;23;21;
49644;PMS5003;36494;50.730;-1.932;2023-03-23T07:59:58;18;16;
49644;PMS5003;36494;50.730;-1.932;2023-03-23T08:02:24;25;20;
49644;PMS5003;36494;50.730;-1.932;2023-03-23T08:04:49;21;20;
49644;PMS5003;36494;50.730;-1.932;2023-03-23T08:07:15;18;16;
49644;PMS5003;36494;50.730;-1.932;2023-03-23T08:09:40;22;20;
49644;PMS5003;36494;50.730;-1.932;2023-03-23T08:12:06;18;17;
49644;PMS5003;36494;50.730;-1.932;2023-03-23T08:14:31;18;15;
49644;PMS5003;36494;50.730;-1.932;2023-03-23T08:16:56;19;17;
49644;PMS5003;36494;50.730;-1.932;2023-03-23T08:19:22;23;19;
49644;PMS5003;36494;50.730;-1.932;2023-03-23T08:21:47;20;19;
49644;PMS5003;36494;50.730;-1.932;2023-03-23T08:24:12;15;15;
49644;PMS5003;36494;50.730;-1.932;2023-03-23T08:26:38;19;17;
49644;PMS5003;36494;50.730;-1.932;2023-03-23T08:29:03;19;16;
49644;PMS5003;36494;50.730;-1.932;2023-03-23T08:31:28;18;14;
49644;PMS5003;36494;50.730;-1.932;2023-03-23T08:33:53;20;18;
49644;PMS5003;36494;50.730;-1.932;2023-03-23T08:36:19;12;11;
49644;PMS5003;36494;50.730;-1.932;2023-03-23T08:38:44;15;13;
49644;PMS5003;36494;50.730;-1.932;2023-03-23T08:41:09;17;14;
49644;PMS5003;36494;50.730;-1.932;2023-03-23T08:43:35;20;18;
49644;PMS5003;36494;50.730;-1.932;2023-03-23T08:46:00;13;12;
49644;PMS5003;36494;50.730;-1.932;2023-03-23T08:48:26;14;14;
49644;PMS5003;36494;50.730;-1.932;2023-03-23T08:50:51;19;17;
49644;PMS5003;36494;50.730;-1.932;2023-03-23T08:53:17;17;16;
49644;PMS5003;36494;50.730;-1.932;2023-03-23T08:55:42;21;19;
49644;PMS5003;36494;50.730;-1.932;2023-03-23T08:58:08;18;17;
49644;PMS5003;36494;50.730;-1.932;2023-03-23T09:00:33;26;24;
49644;PMS5003;36494;50.730;-1.932;2023-03-23T09:02:59;15;14;
49644;PMS5003;36494;50.730;-1.932;2023-03-23T09:05:25;17;15;
49644;PMS5003;36494;50.730;-1.932;2023-03-23T09:07:49;19;15;
49644;PMS5003;36494;50.730;-1.932;2023-03-23T09:10:14;14;12;
49644;PMS5003;36494;50.730;-1.932;2023-03-23T09:12:40;19;18;
49644;PMS5003;36494;50.730;-1.932;2023-03-23T09:15:06;14;11;
49644;PMS5003;36494;50.730;-1.932;2023-03-23T09:17:30;15;14;
49644;PMS5003;36494;50.730;-1.932;2023-03-23T09:19:56;18;17;
49644;PMS5003;36494;50.730;-1.932;2023-03-23T09:22:21;25;22;
49644;PMS5003;36494;50.730;-1.932;2023-03-23T09:24:47;20;19;
49644;PMS5003;36494;50.730;-1.932;2023-03-23T09:27:12;22;20;
49644;PMS5003;36494;50.730;-1.932;2023-03-23T09:29:38;19;16;
49644;PMS5003;36494;50.730;-1.932;2023-03-23T09:32:04;15;13;
49644;PMS5003;36494;50.730;-1.932;2023-03-23T09:34:30;17;15;
49644;PMS5003;36494;50.730;-1.932;2023-03-23T09:36:55;17;13;
49644;PMS5003;36494;50.730;-1.932;2023-03-23T09:39:20;18;16;
49644;PMS5003;36494;50.730;-1.932;2023-03-23T09:41:50;17;16;
49644;PMS5003;36494;50.730;-1.932;2023-03-23T09:44:13;22;20;
49644;PMS5003;36494;50.730;-1.932;2023-03-23T09:46:42;19;18;
49644;PMS5003;36494;50.730;-1.932;2023-03-23T09:49:02;21;17;
49644;PMS5003;36494;50.730;-1.932;2023-03-23T09:51:32;24;21;
49644;PMS5003;36494;50.730;-1.932;2023-03-23T09:53:53;19;16;
49644;PMS5003;36494;50.730;-1.932;2023-03-23T09:56:17;22;21;
49644;PMS5003;36494;50.730;-1.932;2023-03-23T09:58:46;23;18;
49644;PMS5003;36494;50.730;-1.932;2023-03-23T10:01:12;18;16;
49644;PMS5003;36494;50.730;-1.932;2023-03-23T10:03:34;26;24;
49644;PMS5003;36494;50.730;-1.932;2023-03-23T10:05:59;23;20;
49644;PMS5003;36494;50.730;-1.932;2023-03-23T10:08:25;14;13;
49644;PMS5003;36494;50.730;-1.932;2023-03-23T10:10:52;18;17;
49644;PMS5003;36494;50.730;-1.932;2023-03-23T10:13:17;22;21;
49644;PMS5003;36494;50.730;-1.932;2023-03-23T10:15:40;21;19;
49644;PMS5003;36494;50.730;-1.932;2023-03-23T10:18:08;18;17;
49644;PMS5003;36494;50.730;-1.932;2023-03-23T10:20:32;18;15;
49644;PMS5003;36494;50.730;-1.932;2023-03-23T10:22:58;15;15;
49644;PMS5003;36494;50.730;-1.932;2023-03-23T10:25:22;14;13;
49644;PMS5003;36494;50.730;-1.932;2023-03-23T10:27:49;17;15;
49644;PMS5003;36494;50.730;-1.932;2023-03-23T10:30:15;16;15;
49644;PMS5003;36494;50.730;-1.932;2023-03-23T10:32:41;16;14;
49644;PMS5003;36494;50.730;-1.932;2023-03-23T10:35:05;15;13;
49644;PMS5003;36494;50.730;-1.932;2023-03-23T10:37:31;21;19;
49644;PMS5003;36494;50.730;-1.932;2023-03-23T10:39:56;17;14;
49644;PMS5003;36494;50.730;-1.932;2023-03-23T10:42:22;13;12;
49644;PMS5003;36494;50.730;-1.932;2023-03-23T10:44:45;14;13;
49644;PMS5003;36494;50.730;-1.932;2023-03-23T10:47:11;17;17;
49644;PMS5003;36494;50.730;-1.932;2023-03-23T10:49:38;16;15;
49644;PMS5003;36494;50.730;-1.932;2023-03-23T10:52:04;15;12;
49644;PMS5003;36494;50.730;-1.932;2023-03-23T10:54:32;17;14;
49644;PMS5003;36494;50.730;-1.932;2023-03-23T10:56:54;17;13;
49644;PMS5003;36494;50.730;-1.932;2023-03-23T10:59:20;18;18;
49644;PMS5003;36494;50.730;-1.932;2023-03-23T11:01:45;20;19;
49644;PMS5003;36494;50.730;-1.932;2023-03-23T11:04:11;21;20;
49644;PMS5003;36494;50.730;-1.932;2023-03-23T11:06:36;20;18;
49644;PMS5003;36494;50.730;-1.932;2023-03-23T11:09:01;21;16;
49644;PMS5003;36494;50.730;-1.932;2023-03-23T11:11:27;19;17;
49644;PMS5003;36494;50.730;-1.932;2023-03-23T11:13:56;20;19;
49644;PMS5003;36494;50.730;-1.932;2023-03-23T11:16:23;21;18;
49644;PMS5003;36494;50.730;-1.932;2023-03-23T11:18:42;15;15;
49644;PMS5003;36494;50.730;-1.932;2023-03-23T11:21:08;22;17;
49644;PMS5003;36494;50.730;-1.932;2023-03-23T11:23:34;14;13;
49644;PMS5003;36494;50.730;-1.932;2023-03-23T11:26:08;18;15;
49644;PMS5003;36494;50.730;-1.932;2023-03-23T11:28:26;16;14;
49644;PMS5003;36494;50.730;-1.932;2023-03-23T11:30:49;16;12;
49644;PMS5003;36494;50.730;-1.932;2023-03-23T11:33:14;18;13;
49644;PMS5003;36494;50.730;-1.932;2023-03-23T11:35:42;15;14;
49644;PMS5003;36494;50.730;-1.932;2023-03-23T11:38:05;19;18;
49644;PMS5003;36494;50.730;-1.932;2023-03-23T11:40:31;21;19;
49644;PMS5003;36494;50.730;-1.932;2023-03-23T11:42:57;15;14;
49644;PMS5003;36494;50.730;-1.932;2023-03-23T11:45:22;11;9;
49644;PMS5003;36494;50.730;-1.932;2023-03-23T11:47:51;15;13;
49644;PMS5003;36494;50.730;-1.932;2023-03-23T11:50:14;17;14;
49644;PMS5003;36494;50.730;-1.932;2023-03-23T11:52:39;11;9;
49644;PMS5003;36494;50.730;-1.932;2023-03-23T11:55:07;10;10;
49644;PMS5003;36494;50.730;-1.932;2023-03-23T11:57:30;15;14;
49644;PMS5003;36494;50.730;-1.932;2023-03-23T11:59:55;11;10;
49644;PMS5003;36494;50.730;-1.932;2023-03-23T12:02:26;12;12;
49644;PMS5003;36494;50.730;-1.932;2023-03-23T12:04:52;15;13;
49644;PMS5003;36494;50.730;-1.932;2023-03-23T12:07:14;15;13;
49644;PMS5003;36494;50.730;-1.932;2023-03-23T12:09:39;13;12;
49644;PMS5003;36494;50.730;-1.932;2023-03-23T12:12:06;15;15;
49644;PMS5003;36494;50.730;-1.932;2023-03-23T12:14:30;18;16;
49644;PMS5003;36494;50.730;-1.932;2023-03-23T12:16:55;17;16;
49644;PMS5003;36494;50.730;-1.932;2023-03-23T12:19:20;15;15;
49644;PMS5003;36494;50.730;-1.932;2023-03-23T12:21:46;14;12;
49644;PMS5003;36494;50.730;-1.932;2023-03-23T12:24:11;15;13;
49644;PMS5003;36494;50.730;-1.932;2023-03-23T12:26:35;14;13;
49644;PMS5003;36494;50.730;-1.932;2023-03-23T12:29:05;18;17;
49644;PMS5003;36494;50.730;-1.932;2023-03-23T12:31:28;18;16;
49644;PMS5003;36494;50.730;-1.932;2023-03-23T12:33:54;15;14;
49644;PMS5003;36494;50.730;-1.932;2023-03-23T12:36:21;20;18;
49644;PMS5003;36494;50.730;-1.932;2023-03-23T12:38:46;15;13;
49644;PMS5003;36494;50.730;-1.932;2023-03-23T12:41:11;12;12;
49644;PMS5003;36494;50.730;-1.932;2023-03-23T12:43:34;20;18;
49644;PMS5003;36494;50.730;-1.932;2023-03-23T12:46:02;17;16;
49644;PMS5003;36494;50.730;-1.932;2023-03-23T12:48:24;10;10;
49644;PMS5003;36494;50.730;-1.932;2023-03-23T12:53:16;16;14;
49644;PMS5003;36494;50.730;-1.932;2023-03-23T12:55:42;18;17;
49644;PMS5003;36494;50.730;-1.932;2023-03-23T12:58:06;22;20;
49644;PMS5003;36494;50.730;-1.932;2023-03-23T13:00:33;22;20;
49644;PMS5003;36494;50.730;-1.932;2023-03-23T13:02:59;23;23;
49644;PMS5003;36494;50.730;-1.932;2023-03-23T13:05:28;20;19;
49644;PMS5003;36494;50.730;-1.932;2023-03-23T13:07:49;16;16;
49644;PMS5003;36494;50.730;-1.932;2023-03-23T13:10:16;21;20;
49644;PMS5003;36494;50.730;-1.932;2023-03-23T13:12:39;20;19;
49644;PMS5003;36494;50.730;-1.932;2023-03-23T13:15:08;16;14;
49644;PMS5003;36494;50.730;-1.932;2023-03-23T13:17:34;18;14;
49644;PMS5003;36494;50.730;-1.932;2023-03-23T13:20:02;17;15;
49644;PMS5003;36494;50.730;-1.932;2023-03-23T13:22:23;16;14;
49644;PMS5003;36494;50.730;-1.932;2023-03-23T13:24:49;14;12;
49644;PMS5003;36494;50.730;-1.932;2023-03-23T13:27:13;19;17;
49644;PMS5003;36494;50.730;-1.932;2023-03-23T13:29:43;17;13;
49644;PMS5003;36494;50.730;-1.932;2023-03-23T13:32:04;19;17;
49644;PMS5003;36494;50.730;-1.932;2023-03-23T13:34:29;20;18;
49644;PMS5003;36494;50.730;-1.932;2023-03-23T13:36:55;13;13;
49644;PMS5003;36494;50.730;-1.932;2023-03-23T13:39:21;20;17;
49644;PMS5003;36494;50.730;-1.932;2023-03-23T13:41:46;18;13;
49644;PMS5003;36494;50.730;-1.932;2023-03-23T13:46:36;13;12;
49644;PMS5003;36494;50.730;-1.932;2023-03-23T13:49:04;13;13;
49644;PMS5003;36494;50.730;-1.932;2023-03-23T13:51:32;10;9;
49644;PMS5003;36494;50.730;-1.932;2023-03-23T13:53:53;17;14;
49644;PMS5003;36494;50.730;-1.932;2023-03-23T13:56:19;15;14;
49644;PMS5003;36494;50.730;-1.932;2023-03-23T13:58:44;13;13;
49644;PMS5003;36494;50.730;-1.932;2023-03-23T14:01:10;13;12;
49644;PMS5003;36494;50.730;-1.932;2023-03-23T14:03:35;14;14;
49644;PMS5003;36494;50.730;-1.932;2023-03-23T14:06:01;13;12;
49644;PMS5003;36494;50.730;-1.932;2023-03-23T14:10:52;18;17;
49644;PMS5003;36494;50.730;-1.932;2023-03-23T14:13:24;19;18;
49644;PMS5003;36494;50.730;-1.932;2023-03-23T14:15:42;19;18;
49644;PMS5003;36494;50.730;-1.932;2023-03-23T14:18:11;15;14;
49644;PMS5003;36494;50.730;-1.932;2023-03-23T14:20:33;18;18;
49644;PMS5003;36494;50.730;-1.932;2023-03-23T14:22:59;10;10;
49644;PMS5003;36494;50.730;-1.932;2023-03-23T14:25:26;20;18;
49644;PMS5003;36494;50.730;-1.932;2023-03-23T14:27:50;11;11;
49644;PMS5003;36494;50.730;-1.932;2023-03-23T14:30:15;13;10;
49644;PMS5003;36494;50.730;-1.932;2023-03-23T14:32:40;14;13;
49644;PMS5003;36494;50.730;-1.932;2023-03-23T14:35:06;17;17;
49644;PMS5003;36494;50.730;-1.932;2023-03-23T14:37:31;12;11;
49644;PMS5003;36494;50.730;-1.932;2023-03-23T14:39:56;9;8;
49644;PMS5003;36494;50.730;-1.932;2023-03-23T14:42:26;19;16;
49644;PMS5003;36494;50.730;-1.932;2023-03-23T14:44:47;17;15;
49644;PMS5003;36494;50.730;-1.932;2023-03-23T14:47:13;14;11;
49644;PMS5003;36494;50.730;-1.932;2023-03-23T14:49:39;14;13;
49644;PMS5003;36494;50.730;-1.932;2023-03-23T14:52:07;10;9;
49644;PMS5003;36494;50.730;-1.932;2023-03-23T14:54:29;12;11;
49644;PMS5003;36494;50.730;-1.932;2023-03-23T14:56:55;12;11;
49644;PMS5003;36494;50.730;-1.932;2023-03-23T14:59:20;13;10;
49644;PMS5003;36494;50.730;-1.932;2023-03-23T15:01:46;14;12;
49644;PMS5003;36494;50.730;-1.932;2023-03-23T15:04:12;12;11;
49644;PMS5003;36494;50.730;-1.932;2023-03-23T15:06:36;13;11;
49644;PMS5003;36494;50.730;-1.932;2023-03-23T15:09:02;17;15;
49644;PMS5003;36494;50.730;-1.932;2023-03-23T15:11:29;15;14;
49644;PMS5003;36494;50.730;-1.932;2023-03-23T15:13:53;12;12;
49644;PMS5003;36494;50.730;-1.932;2023-03-23T15:16:18;13;13;
49644;PMS5003;36494;50.730;-1.932;2023-03-23T15:18:46;18;14;
49644;PMS5003;36494;50.730;-1.932;2023-03-23T15:21:08;14;13;
49644;PMS5003;36494;50.730;-1.932;2023-03-23T15:23:33;11;11;
49644;PMS5003;36494;50.730;-1.932;2023-03-23T15:26:02;11;10;
49644;PMS5003;36494;50.730;-1.932;2023-03-23T15:28:28;11;11;
49644;PMS5003;36494;50.730;-1.932;2023-03-23T15:30:51;11;11;
49644;PMS5003;36494;50.730;-1.932;2023-03-23T15:33:16;8;6;
49644;PMS5003;36494;50.730;-1.932;2023-03-23T15:35:44;10;8;
49644;PMS5003;36494;50.730;-1.932;2023-03-23T15:38:12;9;7;
49644;PMS5003;36494;50.730;-1.932;2023-03-23T15:40:33;11;9;
49644;PMS5003;36494;50.730;-1.932;2023-03-23T15:45:24;15;13;
49644;PMS5003;36494;50.730;-1.932;2023-03-23T15:47:48;10;10;
49644;PMS5003;36494;50.730;-1.932;2023-03-23T15:50:13;11;11;
49644;PMS5003;36494;50.730;-1.932;2023-03-23T15:52:39;7;6;
49644;PMS5003;36494;50.730;-1.932;2023-03-23T15:55:14;12;12;
49644;PMS5003;36494;50.730;-1.932;2023-03-23T15:57:29;11;11;
49644;PMS5003;36494;50.730;-1.932;2023-03-23T15:59:54;13;12;
49644;PMS5003;36494;50.730;-1.932;2023-03-23T16:02:20;13;12;
49644;PMS5003;36494;50.730;-1.932;2023-03-23T16:04:45;9;8;
49644;PMS5003;36494;50.730;-1.932;2023-03-23T16:07:10;7;7;